Time;durP1;ratioP1;P1;durP2;ratioP2;P2;SDS_P1;SDS_P2;PMS_P1;PMS_P2;Temp;Humidity;BMP_temperature;BMP_pressure;BME280_temperature;BME280_humidity;BME280_pressure;Samples;Min_cycle;Max_cycle;Signal;HPM_P1;HPM_P2
2022/03/13 00:01:53;;;;;;;21.20;13.73;;;1.90;99.90;;;;;;4959050;28;20561;-50
2022/03/13 00:04:21;;;;;;;22.33;14.83;;;1.80;99.90;;;;;;4970131;28;20489;-50
2022/03/13 00:06:50;;;;;;;20.70;14.20;;;1.80;99.90;;;;;;4968202;28;20956;-50
2022/03/13 00:09:20;;;;;;;22.53;15.10;;;1.70;99.90;;;;;;4969619;28;20489;-50
2022/03/13 00:11:46;;;;;;;22.07;14.37;;;1.60;99.90;;;;;;4969035;28;20465;-50
2022/03/13 00:14:13;;;;;;;21.00;14.77;;;1.60;99.90;;;;;;4968069;28;20500;-51
2022/03/13 00:16:40;;;;;;;19.53;14.73;;;1.70;99.90;;;;;;4966647;28;20517;-50
2022/03/13 00:19:07;;;;;;;27.03;14.00;;;1.60;99.90;;;;;;4967486;28;20532;-50
2022/03/13 00:21:35;;;;;;;20.87;13.90;;;1.70;99.90;;;;;;4970141;28;20488;-50
2022/03/13 00:24:02;;;;;;;20.67;15.40;;;1.70;99.90;;;;;;4966767;28;20458;-50
2022/03/13 00:26:29;;;;;;;24.20;15.30;;;1.80;99.90;;;;;;4967180;28;20551;-50
2022/03/13 00:28:56;;;;;;;23.73;15.90;;;1.80;99.90;;;;;;4967425;28;20480;-50
2022/03/13 00:31:24;;;;;;;23.60;15.83;;;1.90;99.90;;;;;;4968538;28;20461;-50
2022/03/13 00:33:50;;;;;;;24.97;14.47;;;1.90;99.90;;;;;;4966704;28;20470;-50
2022/03/13 00:36:17;;;;;;;28.20;15.60;;;2.00;99.90;;;;;;4969800;28;20567;-50
2022/03/13 00:38:45;;;;;;;22.40;14.17;;;1.90;99.90;;;;;;4967572;28;20513;-49
2022/03/13 00:41:12;;;;;;;23.10;15.20;;;2.00;99.90;;;;;;4964854;28;20548;-50
2022/03/13 00:43:38;;;;;;;24.10;15.30;;;1.90;99.90;;;;;;4965593;28;20947;-50
2022/03/13 00:46:06;;;;;;;23.70;15.10;;;1.90;99.90;;;;;;4963034;28;20505;-51
2022/03/13 00:48:33;;;;;;;21.53;15.00;;;1.80;99.90;;;;;;4965802;28;20500;-50
2022/03/13 00:51:00;;;;;;;25.70;15.60;;;1.80;99.90;;;;;;4967728;28;20493;-50
2022/03/13 00:53:26;;;;;;;25.90;15.90;;;1.80;99.90;;;;;;4965778;28;20473;-50
2022/03/13 00:55:54;;;;;;;25.80;15.83;;;1.80;99.90;;;;;;4966595;28;20509;-50
2022/03/13 00:58:21;;;;;;;23.07;15.30;;;1.80;99.90;;;;;;4965636;28;20601;-50
2022/03/13 01:00:47;;;;;;;24.57;15.70;;;1.80;99.90;;;;;;4966901;28;20498;-51
2022/03/13 01:03:30;;;;;;;20.27;14.93;;;1.80;99.90;;;;;;4965262;28;20557;-51
2022/03/13 01:05:56;;;;;;;24.13;15.30;;;1.80;99.90;;;;;;4965830;28;20467;-51
2022/03/13 01:08:23;;;;;;;22.03;15.57;;;1.70;99.90;;;;;;4965173;28;20540;-50
2022/03/13 01:10:50;;;;;;;20.57;14.70;;;1.70;99.90;;;;;;4966788;28;20508;-50
2022/03/13 01:13:19;;;;;;;25.37;15.80;;;1.70;99.90;;;;;;4964269;28;20461;-51
2022/03/13 01:15:46;;;;;;;23.57;14.97;;;1.70;99.90;;;;;;4965334;28;20488;-51
2022/03/13 01:18:13;;;;;;;28.13;14.67;;;1.60;99.90;;;;;;4963735;28;20474;-50
2022/03/13 01:20:40;;;;;;;21.80;14.93;;;1.60;99.90;;;;;;4965861;28;20693;-50
2022/03/13 01:23:09;;;;;;;22.87;14.40;;;1.60;99.90;;;;;;4966334;28;20560;-51
2022/03/13 01:25:35;;;;;;;20.87;15.40;;;1.70;99.90;;;;;;4966824;28;20506;-51
2022/03/13 01:28:02;;;;;;;23.80;14.97;;;1.60;99.90;;;;;;4966586;28;20477;-51
2022/03/13 01:30:29;;;;;;;22.27;14.33;;;1.60;99.90;;;;;;4966104;28;21965;-50
2022/03/13 01:32:56;;;;;;;23.17;14.53;;;1.60;99.90;;;;;;4965267;28;20556;-51
2022/03/13 01:35:24;;;;;;;20.30;14.03;;;1.50;99.90;;;;;;4965441;28;20512;-51
2022/03/13 01:37:52;;;;;;;23.23;14.70;;;1.50;99.90;;;;;;4967300;28;20464;-50
2022/03/13 01:40:21;;;;;;;22.40;14.90;;;1.50;99.90;;;;;;4968670;28;20983;-50
2022/03/13 01:42:49;;;;;;;23.20;14.87;;;1.50;99.90;;;;;;4967935;28;20934;-50
2022/03/13 01:45:17;;;;;;;22.17;14.23;;;1.50;99.90;;;;;;4976070;28;20493;-52
2022/03/13 01:47:46;;;;;;;17.23;13.33;;;1.40;99.90;;;;;;4984633;28;20458;-51
2022/03/13 01:50:15;;;;;;;21.00;14.00;;;1.40;99.90;;;;;;4987488;28;20457;-51
2022/03/13 01:52:48;;;;;;;25.23;14.40;;;1.40;99.90;;;;;;4987289;28;20466;-51
2022/03/13 01:55:16;;;;;;;23.00;15.10;;;1.40;99.90;;;;;;4986209;28;20528;-50
2022/03/13 01:57:45;;;;;;;21.13;14.47;;;1.40;99.90;;;;;;4976260;23;20505;-51
2022/03/13 02:00:13;;;;;;;23.93;14.53;;;1.40;99.90;;;;;;4951522;28;20462;-51
2022/03/13 02:02:47;;;;;;;21.57;12.73;;;1.40;99.90;;;;;;4955755;28;20493;-50
2022/03/13 02:05:28;;;;;;;18.70;13.87;;;1.30;99.90;;;;;;4956142;28;20457;-50
2022/03/13 02:07:56;;;;;;;21.90;14.93;;;1.30;99.90;;;;;;4951128;28;20524;-49
2022/03/13 02:10:22;;;;;;;22.07;13.77;;;1.30;99.90;;;;;;4954174;28;20466;-49
2022/03/13 02:12:49;;;;;;;22.00;13.77;;;1.20;99.90;;;;;;4949871;28;20902;-51
2022/03/13 02:15:15;;;;;;;23.17;14.27;;;1.20;99.90;;;;;;4948526;28;20494;-50
2022/03/13 02:17:42;;;;;;;18.13;13.30;;;1.20;99.90;;;;;;4949547;28;20523;-50
2022/03/13 02:20:15;;;;;;;21.10;13.60;;;1.20;99.90;;;;;;4950526;28;20581;-50
2022/03/13 02:22:45;;;;;;;30.63;14.60;;;1.10;99.90;;;;;;4951262;28;20577;-50
2022/03/13 02:25:19;;;;;;;20.10;13.27;;;1.10;99.90;;;;;;4950145;28;20489;-50
2022/03/13 02:27:46;;;;;;;20.73;14.43;;;1.10;99.90;;;;;;4951234;28;20501;-50
2022/03/13 02:30:13;;;;;;;20.13;14.50;;;1.00;99.90;;;;;;4953761;28;20471;-51
2022/03/13 02:32:39;;;;;;;18.00;13.20;;;0.90;99.90;;;;;;4957626;28;20497;-51
2022/03/13 02:35:06;;;;;;;21.03;13.23;;;0.80;99.90;;;;;;4947609;28;20497;-49
2022/03/13 02:37:38;;;;;;;19.40;13.80;;;0.80;99.90;;;;;;4952437;28;20526;-49
2022/03/13 02:40:08;;;;;;;20.20;13.27;;;0.70;99.90;;;;;;4948333;28;20572;-50
2022/03/13 02:42:41;;;;;;;23.97;14.23;;;0.60;99.90;;;;;;4952021;28;20976;-50
2022/03/13 02:45:09;;;;;;;16.63;12.80;;;0.60;99.90;;;;;;4944260;28;21039;-50
2022/03/13 02:47:35;;;;;;;17.70;12.80;;;0.60;99.90;;;;;;4953723;28;20573;-50
2022/03/13 02:50:02;;;;;;;20.37;13.87;;;0.60;99.90;;;;;;4950522;28;20549;-50
2022/03/13 02:52:28;;;;;;;17.87;13.03;;;0.60;99.90;;;;;;4948394;28;20446;-50
2022/03/13 02:54:55;;;;;;;23.87;12.50;;;0.60;99.90;;;;;;4951439;28;20560;-50
2022/03/13 02:57:23;;;;;;;17.10;12.43;;;0.60;99.90;;;;;;4948814;28;20588;-50
2022/03/13 02:59:49;;;;;;;20.30;13.20;;;0.60;99.90;;;;;;4954602;28;20517;-50
2022/03/13 03:02:18;;;;;;;19.07;13.50;;;0.60;99.90;;;;;;4952125;28;20521;-50
2022/03/13 03:04:45;;;;;;;21.67;13.57;;;0.70;99.90;;;;;;4949739;28;20549;-49
2022/03/13 03:07:12;;;;;;;21.33;14.30;;;0.80;99.90;;;;;;4947856;28;20553;-50
2022/03/13 03:09:38;;;;;;;19.00;13.83;;;0.80;99.90;;;;;;4947996;28;20557;-49
2022/03/13 03:12:06;;;;;;;22.23;14.87;;;0.70;99.90;;;;;;4952737;28;20553;-50
2022/03/13 03:14:35;;;;;;;21.37;13.10;;;0.60;99.90;;;;;;4958245;28;20462;-49
2022/03/13 03:17:01;;;;;;;20.37;13.83;;;0.60;99.90;;;;;;4955767;28;20564;-50
2022/03/13 03:19:28;;;;;;;20.30;14.27;;;0.60;99.90;;;;;;4961074;28;20592;-50
2022/03/13 03:21:55;;;;;;;19.93;14.57;;;0.60;99.90;;;;;;4953415;28;21121;-50
2022/03/13 03:24:24;;;;;;;20.13;13.60;;;0.60;99.90;;;;;;4955641;28;20471;-50
2022/03/13 03:26:53;;;;;;;21.77;13.60;;;0.60;99.90;;;;;;4950543;28;21082;-50
2022/03/13 03:29:19;;;;;;;22.50;14.20;;;0.60;99.90;;;;;;4946641;28;20556;-50
2022/03/13 03:31:49;;;;;;;20.40;13.90;;;0.70;99.90;;;;;;4955762;28;20549;-50
2022/03/13 03:34:18;;;;;;;20.33;13.43;;;0.60;99.90;;;;;;4952442;28;20462;-49
2022/03/13 03:36:47;;;;;;;18.23;13.60;;;0.70;99.90;;;;;;4948631;28;20558;-50
2022/03/13 03:39:16;;;;;;;20.30;13.90;;;0.70;99.90;;;;;;4955005;28;21151;-49
2022/03/13 03:41:43;;;;;;;19.07;12.90;;;0.70;99.90;;;;;;4949961;28;20462;-50
2022/03/13 03:44:11;;;;;;;16.80;12.37;;;0.80;99.90;;;;;;4948994;28;20554;-50
2022/03/13 03:46:38;;;;;;;21.37;13.73;;;0.80;99.90;;;;;;4952737;28;20482;-50
2022/03/13 03:49:06;;;;;;;25.80;14.13;;;0.80;99.90;;;;;;4962104;28;20545;-50
2022/03/13 03:51:33;;;;;;;20.77;14.67;;;0.80;99.90;;;;;;4955644;28;20501;-50
2022/03/13 03:54:00;;;;;;;19.87;12.87;;;0.80;99.90;;;;;;4950936;28;20815;-50
2022/03/13 03:56:26;;;;;;;24.07;14.00;;;0.80;99.90;;;;;;4950834;28;20573;-50
2022/03/13 03:58:53;;;;;;;21.10;14.07;;;0.80;99.90;;;;;;4947924;28;20482;-51
2022/03/13 04:01:19;;;;;;;21.87;14.10;;;0.80;99.90;;;;;;4959284;28;20948;-50
2022/03/13 04:03:46;;;;;;;20.90;14.13;;;0.70;99.90;;;;;;4965116;28;20466;-50
2022/03/13 04:06:15;;;;;;;22.00;14.43;;;0.60;99.90;;;;;;4955956;28;20475;-50
2022/03/13 04:08:42;;;;;;;37.57;13.37;;;0.60;99.90;;;;;;4949482;28;20470;-51
2022/03/13 04:11:08;;;;;;;21.13;13.73;;;0.60;99.90;;;;;;4947464;28;20545;-51
2022/03/13 04:13:38;;;;;;;22.77;13.90;;;0.50;99.90;;;;;;4947804;28;20991;-51
2022/03/13 04:16:06;;;;;;;22.60;13.90;;;0.50;99.90;;;;;;4957665;28;20470;-50
2022/03/13 04:18:32;;;;;;;23.23;13.10;;;0.50;99.90;;;;;;4949955;28;20552;-50
2022/03/13 04:20:59;;;;;;;21.57;13.47;;;0.50;99.90;;;;;;4950569;28;21027;-50
2022/03/13 04:23:27;;;;;;;23.53;14.60;;;0.50;99.90;;;;;;4956895;28;20469;-50
2022/03/13 04:25:53;;;;;;;17.80;12.37;;;0.50;99.90;;;;;;4952810;28;20498;-49
2022/03/13 04:28:21;;;;;;;19.60;13.50;;;0.50;99.90;;;;;;4949728;28;21198;-49
2022/03/13 04:30:52;;;;;;;20.40;13.30;;;0.50;99.90;;;;;;4951707;28;20469;-50
2022/03/13 04:33:19;;;;;;;27.13;13.27;;;0.50;99.90;;;;;;4954061;28;20467;-49
2022/03/13 04:35:46;;;;;;;17.80;13.53;;;0.50;99.90;;;;;;4957967;28;20556;-50
2022/03/13 04:38:14;;;;;;;23.97;12.73;;;0.50;99.90;;;;;;4952022;28;20484;-49
2022/03/13 04:40:42;;;;;;;23.67;12.67;;;0.50;99.90;;;;;;4943281;28;20513;-50
2022/03/13 04:43:08;;;;;;;21.20;13.43;;;0.50;99.90;;;;;;4957756;28;20937;-51
2022/03/13 04:45:35;;;;;;;22.37;13.27;;;0.50;99.90;;;;;;4947434;28;20462;-49
2022/03/13 04:48:01;;;;;;;19.63;13.40;;;0.60;99.90;;;;;;4952147;28;20570;-49
2022/03/13 04:50:28;;;;;;;22.67;13.60;;;0.50;99.90;;;;;;4952656;28;20561;-50
2022/03/13 04:52:55;;;;;;;22.30;12.90;;;0.50;99.90;;;;;;4949987;28;20466;-50
2022/03/13 04:55:22;;;;;;;22.33;12.43;;;0.50;99.90;;;;;;4947725;28;20968;-49
2022/03/13 04:57:49;;;;;;;24.70;13.90;;;0.50;99.90;;;;;;4948510;28;20609;-50
2022/03/13 05:00:17;;;;;;;20.27;14.07;;;0.50;99.90;;;;;;4944286;28;20570;-50
2022/03/13 05:02:44;;;;;;;19.93;13.43;;;0.50;99.90;;;;;;4951521;28;20600;-50
2022/03/13 05:05:10;;;;;;;22.53;14.30;;;0.40;99.90;;;;;;4950560;28;20598;-50
2022/03/13 05:07:38;;;;;;;18.53;12.43;;;0.50;99.90;;;;;;4947588;28;20569;-49
2022/03/13 05:10:06;;;;;;;23.83;12.70;;;0.50;99.90;;;;;;4949531;28;20497;-50
2022/03/13 05:12:33;;;;;;;17.37;12.20;;;0.60;99.90;;;;;;4955985;28;20494;-51
2022/03/13 05:15:00;;;;;;;19.13;12.13;;;0.50;99.90;;;;;;4951411;28;20955;-50
2022/03/13 05:17:27;;;;;;;15.77;12.13;;;0.50;99.90;;;;;;4956022;28;20573;-50
2022/03/13 05:19:53;;;;;;;19.83;13.40;;;0.50;99.90;;;;;;4952618;28;20863;-51
2022/03/13 05:22:20;;;;;;;21.17;12.73;;;0.50;99.90;;;;;;4954104;28;20726;-50
2022/03/13 05:24:47;;;;;;;21.77;12.13;;;0.50;99.90;;;;;;4953528;28;20549;-49
2022/03/13 05:27:14;;;;;;;16.83;12.57;;;0.60;99.90;;;;;;4951044;28;20532;-50
2022/03/13 05:29:40;;;;;;;18.47;12.93;;;0.60;99.90;;;;;;4955710;28;20493;-50
2022/03/13 05:32:09;;;;;;;20.50;13.83;;;0.60;99.90;;;;;;4962322;28;21027;-50
2022/03/13 05:34:36;;;;;;;19.00;12.80;;;0.60;99.90;;;;;;4949179;28;20545;-51
2022/03/13 05:37:02;;;;;;;17.40;11.80;;;0.60;99.90;;;;;;4952271;28;20494;-50
2022/03/13 05:39:29;;;;;;;20.63;12.23;;;0.60;99.90;;;;;;4958889;28;20557;-49
2022/03/13 05:41:56;;;;;;;17.80;11.57;;;0.60;99.90;;;;;;4953572;28;20517;-51
2022/03/13 05:44:23;;;;;;;20.17;13.10;;;0.60;99.90;;;;;;4958042;28;20212;-51
2022/03/13 05:46:49;;;;;;;18.80;12.87;;;0.70;99.90;;;;;;4950114;28;20537;-51
2022/03/13 05:49:17;;;;;;;19.30;13.70;;;0.70;99.90;;;;;;4954216;28;20498;-51
2022/03/13 05:51:44;;;;;;;19.33;12.20;;;0.80;99.90;;;;;;4953876;28;20554;-51
2022/03/13 05:54:11;;;;;;;19.13;13.93;;;0.80;99.90;;;;;;4949064;28;20554;-51
2022/03/13 05:56:37;;;;;;;25.00;12.87;;;0.90;99.90;;;;;;4956208;28;20573;-50
2022/03/13 05:59:04;;;;;;;17.27;12.37;;;0.90;99.90;;;;;;4952918;28;20489;-50
2022/03/13 06:01:30;;;;;;;19.93;12.60;;;1.00;99.90;;;;;;4952034;28;20536;-50
2022/03/13 06:03:57;;;;;;;18.60;12.73;;;1.00;99.90;;;;;;4950836;28;20545;-52
2022/03/13 06:06:25;;;;;;;18.50;13.80;;;1.00;99.90;;;;;;4950103;28;20613;-50
2022/03/13 06:08:51;;;;;;;19.13;12.90;;;1.10;99.90;;;;;;4955135;28;20497;-51
2022/03/13 06:11:18;;;;;;;16.70;11.97;;;1.00;99.90;;;;;;4950430;28;21018;-51
2022/03/13 06:13:44;;;;;;;16.20;11.70;;;1.10;99.90;;;;;;4959716;28;20557;-53
2022/03/13 06:16:11;;;;;;;16.60;12.77;;;1.20;99.90;;;;;;4951597;28;20569;-51
2022/03/13 06:18:38;;;;;;;20.03;14.03;;;1.20;99.90;;;;;;4952791;28;20569;-51
2022/03/13 06:21:05;;;;;;;15.87;11.50;;;1.30;99.90;;;;;;4952345;28;20545;-51
2022/03/13 06:23:33;;;;;;;18.77;13.10;;;1.30;99.90;;;;;;4949609;28;20521;-51
2022/03/13 06:26:00;;;;;;;19.27;12.83;;;1.30;99.90;;;;;;4956027;28;20458;-51
2022/03/13 06:28:27;;;;;;;18.43;12.87;;;1.40;99.90;;;;;;4960759;28;20502;-51
2022/03/13 06:30:55;;;;;;;19.47;13.37;;;1.60;99.90;;;;;;4955386;28;20458;-51
2022/03/13 06:33:22;;;;;;;23.57;14.43;;;1.60;99.90;;;;;;4950111;28;20525;-51
2022/03/13 06:35:48;;;;;;;20.90;11.70;;;1.70;99.90;;;;;;4958331;28;20512;-50
2022/03/13 06:38:15;;;;;;;25.53;13.93;;;1.80;99.90;;;;;;4954483;28;20927;-51
2022/03/13 06:40:43;;;;;;;16.80;12.40;;;1.90;99.90;;;;;;4948628;28;20576;-51
2022/03/13 06:43:10;;;;;;;20.53;13.00;;;2.00;99.90;;;;;;4956210;28;20467;-51
2022/03/13 06:45:37;;;;;;;16.30;13.10;;;2.10;99.90;;;;;;4950195;28;20494;-51
2022/03/13 06:48:03;;;;;;;20.90;12.37;;;2.20;99.90;;;;;;4957326;28;20510;-50
2022/03/13 06:50:30;;;;;;;16.73;12.90;;;2.30;99.90;;;;;;4954785;28;20454;-51
2022/03/13 06:52:57;;;;;;;19.30;12.23;;;2.30;99.90;;;;;;4949244;28;20463;-50
2022/03/13 06:55:25;;;;;;;18.30;12.77;;;2.20;99.90;;;;;;4948480;28;20959;-51
2022/03/13 06:57:53;;;;;;;22.67;13.53;;;2.40;99.90;;;;;;4950830;28;20975;-50
2022/03/13 07:00:20;;;;;;;21.10;11.80;;;2.60;99.90;;;;;;4951298;28;20921;-50
2022/03/13 07:02:47;;;;;;;20.10;12.67;;;2.70;99.90;;;;;;4951252;28;20498;-51
2022/03/13 07:05:13;;;;;;;19.37;12.80;;;2.70;99.90;;;;;;4953089;28;20553;-51
2022/03/13 07:07:40;;;;;;;20.27;13.20;;;2.70;99.90;;;;;;4956462;28;20582;-51
2022/03/13 07:10:12;;;;;;;24.50;12.80;;;2.90;99.90;;;;;;4956472;28;20482;-50
2022/03/13 07:12:40;;;;;;;17.57;12.27;;;3.00;99.90;;;;;;4956474;28;20458;-51
2022/03/13 07:15:10;;;;;;;19.20;13.13;;;3.20;99.90;;;;;;4950029;28;21026;-51
2022/03/13 07:17:37;;;;;;;22.20;13.83;;;3.30;99.90;;;;;;4951976;28;20893;-51
2022/03/13 07:20:05;;;;;;;19.53;13.17;;;3.50;99.90;;;;;;4948989;28;20483;-51
2022/03/13 07:22:32;;;;;;;15.90;11.60;;;3.70;99.90;;;;;;4950982;28;20550;-51
2022/03/13 07:24:58;;;;;;;19.83;13.50;;;3.80;99.90;;;;;;4950559;28;20557;-52
2022/03/13 07:27:25;;;;;;;18.33;12.33;;;3.90;99.90;;;;;;4952172;28;20575;-50
2022/03/13 07:29:52;;;;;;;18.30;12.50;;;3.90;99.90;;;;;;4950502;28;20551;-50
2022/03/13 07:32:20;;;;;;;15.70;10.73;;;4.20;99.90;;;;;;4954394;28;20516;-51
2022/03/13 07:34:46;;;;;;;20.20;11.47;;;4.50;99.90;;;;;;4943106;28;20462;-51
2022/03/13 07:37:13;;;;;;;20.03;11.80;;;4.60;99.90;;;;;;4952472;28;20577;-52
2022/03/13 07:39:41;;;;;;;16.93;12.63;;;4.80;99.90;;;;;;4950741;28;20503;-51
2022/03/13 07:42:08;;;;;;;15.50;10.80;;;4.90;99.90;;;;;;4952383;28;20473;-51
2022/03/13 07:44:35;;;;;;;19.20;12.33;;;4.90;99.90;;;;;;4948124;28;20478;-51
2022/03/13 07:47:01;;;;;;;20.80;13.33;;;4.90;99.90;;;;;;4947600;28;20486;-50
2022/03/13 07:49:29;;;;;;;18.83;11.83;;;5.10;99.90;;;;;;4951527;28;20506;-50
2022/03/13 07:51:56;;;;;;;18.40;13.20;;;5.10;99.90;;;;;;4947187;28;20968;-50
2022/03/13 07:54:22;;;;;;;16.90;12.67;;;5.30;99.90;;;;;;4955437;28;20465;-50
2022/03/13 07:56:49;;;;;;;19.37;12.53;;;5.10;99.90;;;;;;4945895;28;20589;-50
2022/03/13 07:59:15;;;;;;;17.90;12.50;;;5.20;99.90;;;;;;4940923;28;20553;-50
2022/03/13 08:01:42;;;;;;;18.77;12.60;;;5.20;99.90;;;;;;4946356;28;20582;-51
2022/03/13 08:04:08;;;;;;;20.97;13.60;;;5.50;99.90;;;;;;4949456;28;20582;-49
2022/03/13 08:06:37;;;;;;;30.53;14.07;;;5.80;99.90;;;;;;4969371;28;20924;-49
2022/03/13 08:09:04;;;;;;;19.80;12.93;;;5.90;99.90;;;;;;4950893;28;20458;-50
2022/03/13 08:11:32;;;;;;;33.57;13.30;;;6.00;99.90;;;;;;4943876;28;20582;-50
2022/03/13 08:13:59;;;;;;;18.03;12.80;;;5.80;99.90;;;;;;4945002;28;20458;-50
2022/03/13 08:16:27;;;;;;;21.37;14.03;;;6.60;99.90;;;;;;4948756;28;21027;-50
2022/03/13 08:18:53;;;;;;;17.20;11.90;;;6.60;99.90;;;;;;4949818;28;20473;-50
2022/03/13 08:21:20;;;;;;;15.83;11.77;;;6.80;99.90;;;;;;4958963;28;20582;-50
2022/03/13 08:23:48;;;;;;;21.67;13.43;;;6.90;99.90;;;;;;4950607;28;20567;-50
2022/03/13 08:26:14;;;;;;;20.90;13.57;;;7.10;99.90;;;;;;4951149;28;20590;-49
2022/03/13 08:28:42;;;;;;;17.80;13.70;;;7.60;99.90;;;;;;4946944;28;20572;-50
2022/03/13 08:31:08;;;;;;;18.20;12.23;;;7.50;99.90;;;;;;4948791;28;20486;-50
2022/03/13 08:33:35;;;;;;;16.93;11.30;;;7.70;99.90;;;;;;4958556;28;20466;-50
2022/03/13 08:36:02;;;;;;;19.87;12.43;;;7.70;99.90;;;;;;4951481;28;20469;-50
2022/03/13 08:38:29;;;;;;;18.30;11.87;;;7.60;99.90;;;;;;4956565;28;20498;-49
2022/03/13 08:40:57;;;;;;;18.03;12.00;;;7.90;99.90;;;;;;4950007;28;20870;-49
2022/03/13 08:43:23;;;;;;;20.73;12.27;;;8.40;99.90;;;;;;4951437;28;20561;-50
2022/03/13 08:45:50;;;;;;;16.33;11.17;;;8.60;99.90;;;;;;4943642;28;20557;-50
2022/03/13 08:48:17;;;;;;;14.77;11.53;;;8.80;99.90;;;;;;4946916;28;20481;-49
2022/03/13 08:50:44;;;;;;;17.60;10.20;;;9.40;99.90;;;;;;4947302;28;20466;-50
2022/03/13 08:53:10;;;;;;;12.67;9.37;;;9.40;99.90;;;;;;4947886;28;20548;-50
2022/03/13 08:55:37;;;;;;;16.83;10.93;;;9.00;99.90;;;;;;4961013;28;20822;-50
2022/03/13 08:58:06;;;;;;;17.90;12.07;;;9.50;99.90;;;;;;4949981;28;20494;-50
2022/03/13 09:00:34;;;;;;;17.83;11.60;;;10.80;99.90;;;;;;4952644;28;20593;-49
2022/03/13 09:03:01;;;;;;;11.90;8.80;;;10.70;99.90;;;;;;4954790;28;20926;-50
2022/03/13 09:05:27;;;;;;;17.10;10.97;;;11.00;99.90;;;;;;4958426;28;20980;-50
2022/03/13 09:07:54;;;;;;;16.67;10.60;;;11.70;99.90;;;;;;4947148;28;20574;-50
2022/03/13 09:10:20;;;;;;;15.53;10.60;;;11.70;99.90;;;;;;4945504;28;20557;-50
2022/03/13 09:12:47;;;;;;;18.37;10.43;;;11.80;99.90;;;;;;4950022;28;20489;-51
2022/03/13 09:15:15;;;;;;;14.80;10.73;;;11.40;99.90;;;;;;4941717;28;20556;-50
2022/03/13 09:17:42;;;;;;;14.27;11.33;;;12.30;99.90;;;;;;4947666;28;20489;-49
2022/03/13 09:20:11;;;;;;;12.30;9.83;;;12.00;99.90;;;;;;4950996;28;20462;-49
2022/03/13 09:22:38;;;;;;;14.90;10.23;;;10.70;99.90;;;;;;4942797;28;20486;-51
2022/03/13 09:25:05;;;;;;;12.53;9.80;;;10.60;99.90;;;;;;4946430;28;20552;-50
2022/03/13 09:27:32;;;;;;;16.47;10.53;;;11.20;99.90;;;;;;4945329;28;20565;-49
2022/03/13 09:29:59;;;;;;;17.30;10.83;;;10.50;99.90;;;;;;4944597;28;20466;-50
2022/03/13 09:32:28;;;;;;;15.40;10.20;;;11.30;99.90;;;;;;4952751;28;20557;-50
2022/03/13 09:34:55;;;;;;;15.93;10.60;;;11.50;99.90;;;;;;4949191;28;20467;-49
2022/03/13 09:37:23;;;;;;;15.83;11.00;;;11.80;99.90;;;;;;4943060;28;21052;-51
2022/03/13 09:39:50;;;;;;;15.27;11.17;;;10.80;99.90;;;;;;4941870;28;20462;-50
2022/03/13 09:42:17;;;;;;;16.57;10.57;;;11.00;99.90;;;;;;4954254;28;21189;-49
2022/03/13 09:44:44;;;;;;;15.90;10.27;;;11.90;99.90;;;;;;4950756;28;20960;-51
2022/03/13 09:47:11;;;;;;;15.30;10.63;;;12.70;99.90;;;;;;4950479;28;20482;-50
2022/03/13 09:49:41;;;;;;;19.13;9.93;;;13.10;99.90;;;;;;4944694;28;20529;-50
2022/03/13 09:52:08;;;;;;;16.10;10.93;;;12.40;99.90;;;;;;4944593;28;20486;-50
2022/03/13 09:54:35;;;;;;;17.60;10.87;;;13.20;99.90;;;;;;4950401;28;20503;-50
2022/03/13 09:57:02;;;;;;;16.00;11.27;;;13.40;99.90;;;;;;4941728;28;20494;-51
2022/03/13 09:59:29;;;;;;;13.73;10.80;;;12.20;99.90;;;;;;4948256;28;20470;-51
2022/03/13 10:01:55;;;;;;;13.40;10.27;;;11.80;99.90;;;;;;4955155;28;20576;-50
2022/03/13 10:04:22;;;;;;;13.57;10.00;;;11.80;99.90;;;;;;4943834;28;20589;-51
2022/03/13 10:07:04;;;;;;;13.93;9.50;;;12.40;99.90;;;;;;4949903;28;20597;-50
2022/03/13 10:09:33;;;;;;;13.63;10.43;;;13.00;99.90;;;;;;4947958;28;20504;-50
2022/03/13 10:12:11;;;;;;;11.63;9.47;;;14.20;99.90;;;;;;4954072;28;20487;-51
2022/03/13 10:14:40;;;;;;;21.93;9.83;;;13.40;99.90;;;;;;4952729;28;20478;-50
2022/03/13 10:17:24;;;;;;;13.13;9.50;;;12.40;99.90;;;;;;4947186;28;20482;-50
2022/03/13 10:19:51;;;;;;;12.27;9.10;;;11.40;99.90;;;;;;4951383;28;20467;-50
2022/03/13 10:22:19;;;;;;;19.33;12.27;;;11.10;99.90;;;;;;4962861;28;20585;-50
2022/03/13 10:24:49;;;;;;;16.37;11.00;;;11.90;99.90;;;;;;4956764;28;20986;-51
2022/03/13 10:27:18;;;;;;;20.33;10.20;;;12.90;99.90;;;;;;4948783;28;20483;-51
2022/03/13 10:29:47;;;;;;;15.27;10.07;;;13.00;99.90;;;;;;4947812;28;20542;-51
2022/03/13 10:32:14;;;;;;;14.80;10.10;;;13.40;99.90;;;;;;4946058;28;20966;-50
2022/03/13 10:34:41;;;;;;;13.20;9.93;;;12.70;99.90;;;;;;4952615;28;20958;-51
2022/03/13 10:37:09;;;;;;;13.37;9.00;;;13.20;99.90;;;;;;4959970;28;20564;-51
2022/03/13 10:39:38;;;;;;;11.60;8.80;;;14.00;99.90;;;;;;4957919;28;20515;-51
2022/03/13 10:42:05;;;;;;;12.70;9.13;;;14.30;99.90;;;;;;4948028;28;20568;-51
2022/03/13 10:44:35;;;;;;;12.07;8.60;;;14.00;99.90;;;;;;4948214;28;20513;-51
2022/03/13 10:47:05;;;;;;;19.23;8.73;;;13.70;99.90;;;;;;4949806;28;20486;-51
2022/03/13 10:49:40;;;;;;;12.83;8.83;;;14.30;99.90;;;;;;4948014;28;20466;-51
2022/03/13 10:52:23;;;;;;;12.97;8.30;;;13.90;99.90;;;;;;4953906;28;20458;-51
2022/03/13 10:54:51;;;;;;;10.67;7.90;;;14.50;99.90;;;;;;4950540;28;20474;-51
2022/03/13 10:57:19;;;;;;;9.60;7.80;;;14.40;99.90;;;;;;4949625;28;20588;-51
2022/03/13 10:59:46;;;;;;;14.83;9.03;;;14.00;99.90;;;;;;4956717;28;20466;-50
2022/03/13 11:02:14;;;;;;;17.37;10.50;;;12.10;99.90;;;;;;4948929;28;21020;-51
2022/03/13 11:04:49;;;;;;;15.10;9.87;;;12.60;99.90;;;;;;4948749;28;20562;-51
2022/03/13 11:07:16;;;;;;;13.30;9.60;;;12.30;99.90;;;;;;4947939;28;20486;-51
2022/03/13 11:09:43;;;;;;;22.33;9.70;;;12.40;99.90;;;;;;4951343;28;20490;-51
2022/03/13 11:12:19;;;;;;;13.00;9.37;;;12.70;99.90;;;;;;4943986;29;20842;-51
2022/03/13 11:14:48;;;;;;;11.50;9.10;;;12.50;99.90;;;;;;4948870;29;20501;-51
2022/03/13 11:17:18;;;;;;;11.13;8.93;;;12.80;99.90;;;;;;4951196;28;20493;-51
2022/03/13 11:19:47;;;;;;;10.27;8.70;;;13.50;99.90;;;;;;4958029;28;20457;-52
2022/03/13 11:22:16;;;;;;;13.80;9.50;;;13.20;99.90;;;;;;4956336;28;20514;-51
2022/03/13 11:24:43;;;;;;;15.03;9.47;;;12.70;99.90;;;;;;4966455;28;20816;-51
2022/03/13 11:27:13;;;;;;;9.83;8.50;;;12.80;99.90;;;;;;4954591;28;20478;-51
2022/03/13 11:29:44;;;;;;;19.37;10.43;;;14.00;99.90;;;;;;4951132;28;20474;-51
2022/03/13 11:32:28;;;;;;;19.87;8.33;;;13.80;99.90;;;;;;4950007;29;20546;-51
2022/03/13 11:35:19;;;;;;;10.73;7.90;;;12.70;99.90;;;;;;4950622;29;20570;-51
2022/03/13 11:37:47;;;;;;;13.60;8.80;;;12.30;99.90;;;;;;4949652;28;20514;-51
2022/03/13 11:40:16;;;;;;;11.07;8.50;;;12.20;99.90;;;;;;4954190;28;20575;-50
2022/03/13 11:42:48;;;;;;;13.90;9.17;;;12.30;99.90;;;;;;4957381;28;20577;-51
2022/03/13 11:45:31;;;;;;;11.77;9.43;;;12.80;99.90;;;;;;4955845;28;20450;-51
2022/03/13 11:47:58;;;;;;;10.20;8.00;;;12.60;99.90;;;;;;4966209;28;20568;-51
2022/03/13 11:50:47;;;;;;;12.93;9.33;;;12.10;99.90;;;;;;4966806;28;20481;-51
2022/03/13 11:53:17;;;;;;;12.70;8.87;;;12.20;99.90;;;;;;4968717;28;20445;-50
2022/03/13 11:56:05;;;;;;;11.87;8.77;;;12.30;99.90;;;;;;4963536;28;20503;-50
2022/03/13 11:58:45;;;;;;;15.00;10.00;;;12.00;99.90;;;;;;4969808;28;20533;-50
2022/03/13 12:01:15;;;;;;;11.70;7.90;;;12.00;99.90;;;;;;4973482;28;20450;-53
2022/03/13 12:04:23;;;;;;;12.80;8.53;;;12.20;99.90;;;;;;4955206;28;20545;-49
2022/03/13 12:06:56;;;;;;;13.33;10.10;;;12.40;99.90;;;;;;4953083;29;20540;-50
2022/03/13 12:09:28;;;;;;;9.77;8.80;;;12.20;99.90;;;;;;4953519;28;20952;-50
2022/03/13 12:12:06;;;;;;;12.60;8.27;;;12.50;99.90;;;;;;4954475;28;20500;-51
2022/03/13 12:15:07;;;;;;;12.60;9.20;;;12.40;99.90;;;;;;4942896;28;20467;-50
2022/03/13 12:17:45;;;;;;;12.87;10.60;;;12.80;99.90;;;;;;4951290;28;20482;-51
2022/03/13 12:20:22;;;;;;;13.43;9.07;;;12.90;99.90;;;;;;4959891;28;20457;-50
2022/03/13 12:22:53;;;;;;;11.40;8.83;;;13.00;99.90;;;;;;4953613;28;21038;-50
2022/03/13 12:25:23;;;;;;;11.13;8.50;;;13.00;99.90;;;;;;4953570;28;20494;-50
2022/03/13 12:27:50;;;;;;;11.40;8.63;;;12.90;99.90;;;;;;4952045;28;20886;-50
2022/03/13 12:30:24;;;;;;;11.67;8.40;;;12.60;99.90;;;;;;4961780;28;20501;-50
2022/03/13 12:32:57;;;;;;;9.63;8.07;;;12.80;99.90;;;;;;4950148;28;20462;-50
2022/03/13 12:35:24;;;;;;;11.07;7.83;;;13.00;99.90;;;;;;4948310;28;21215;-50
2022/03/13 12:37:55;;;;;;;13.07;8.00;;;12.80;99.90;;;;;;4959011;28;20506;-50
2022/03/13 12:40:23;;;;;;;10.20;8.40;;;12.70;99.90;;;;;;4944451;28;20538;-50
2022/03/13 12:42:53;;;;;;;9.53;7.40;;;12.40;99.90;;;;;;4952745;28;20497;-49